sensor_id;sensor_type;location;lat;lon;timestamp;pressure;altitude;pressure_sealevel;temperature;humidity
48089;BME280;33867;50.314;7.802;2022-12-07T00:52:58;100532.22;;;2.89;98.79
48089;BME280;33867;50.314;7.802;2022-12-07T01:07:11;100532.13;;;3.20;97.14
48089;BME280;33867;50.314;7.802;2022-12-07T01:10:31;100532.16;;;3.05;97.88
48089;BME280;33867;50.314;7.802;2022-12-07T03:40:13;100462.25;;;3.17;98.02
48089;BME280;33867;50.314;7.802;2022-12-07T03:43:34;100469.25;;;2.89;99.73
48089;BME280;33867;50.314;7.802;2022-12-07T04:50:25;100456.16;;;3.01;100.00
48089;BME280;33867;50.314;7.802;2022-12-07T05:41:05;100454.00;;;3.50;98.74
48089;BME280;33867;50.314;7.802;2022-12-07T06:06:14;100450.19;;;3.40;98.38
48089;BME280;33867;50.314;7.802;2022-12-07T06:09:34;100448.78;;;3.34;98.62
48089;BME280;33867;50.314;7.802;2022-12-07T06:12:53;100452.66;;;3.43;99.19
48089;BME280;33867;50.314;7.802;2022-12-07T06:16:12;100456.38;;;3.26;99.05
48089;BME280;33867;50.314;7.802;2022-12-07T06:19:31;100451.81;;;3.14;99.28
48089;BME280;33867;50.314;7.802;2022-12-07T06:22:50;100453.63;;;3.28;99.50
48089;BME280;33867;50.314;7.802;2022-12-07T06:26:09;100456.94;;;3.45;99.36
48089;BME280;33867;50.314;7.802;2022-12-07T06:29:29;100450.19;;;3.54;98.74
48089;BME280;33867;50.314;7.802;2022-12-07T06:32:48;100446.66;;;3.53;98.07
48089;BME280;33867;50.314;7.802;2022-12-07T06:50:38;100458.63;;;3.75;96.93
48089;BME280;33867;50.314;7.802;2022-12-07T06:53:58;100464.72;;;3.63;97.59
48089;BME280;33867;50.314;7.802;2022-12-07T06:57:17;100460.03;;;3.66;97.49
48089;BME280;33867;50.314;7.802;2022-12-07T07:00:36;100455.69;;;3.79;97.14
48089;BME280;33867;50.314;7.802;2022-12-07T07:03:55;100462.03;;;3.77;96.97
48089;BME280;33867;50.314;7.802;2022-12-07T07:07:14;100466.72;;;3.73;96.84
48089;BME280;33867;50.314;7.802;2022-12-07T07:10:34;100468.78;;;3.83;97.42
48089;BME280;33867;50.314;7.802;2022-12-07T07:13:54;100476.50;;;3.73;97.21
48089;BME280;33867;50.314;7.802;2022-12-07T07:17:15;100476.22;;;3.63;97.59
48089;BME280;33867;50.314;7.802;2022-12-07T07:20:35;100481.94;;;3.57;99.41
48089;BME280;33867;50.314;7.802;2022-12-07T07:23:54;100481.66;;;3.47;100.00
48089;BME280;33867;50.314;7.802;2022-12-07T07:27:13;100474.22;;;3.52;100.00
48089;BME280;33867;50.314;7.802;2022-12-07T07:30:32;100474.69;;;3.73;98.40
48089;BME280;33867;50.314;7.802;2022-12-07T07:54:56;100492.56;;;3.86;96.18
48089;BME280;33867;50.314;7.802;2022-12-07T07:58:15;100485.16;;;3.91;96.66
48089;BME280;33867;50.314;7.802;2022-12-07T08:01:34;100489.16;;;3.84;96.44
48089;BME280;33867;50.314;7.802;2022-12-07T08:41:40;100500.84;;;4.22;96.84
48089;BME280;33867;50.314;7.802;2022-12-07T08:49:08;100515.13;;;4.21;96.58
48089;BME280;33867;50.314;7.802;2022-12-07T08:52:28;100515.78;;;4.25;96.43
48089;BME280;33867;50.314;7.802;2022-12-07T09:07:27;100510.41;;;4.66;95.39
48089;BME280;33867;50.314;7.802;2022-12-07T09:10:47;100504.00;;;4.68;95.34
48089;BME280;33867;50.314;7.802;2022-12-07T09:17:51;100507.78;;;4.79;95.10
48089;BME280;33867;50.314;7.802;2022-12-07T09:21:10;100507.25;;;4.74;94.99
48089;BME280;33867;50.314;7.802;2022-12-07T09:24:31;100505.34;;;4.88;94.29
48089;BME280;33867;50.314;7.802;2022-12-07T09:27:56;100506.00;;;4.52;93.30
48089;BME280;33867;50.314;7.802;2022-12-07T09:31:15;100503.06;;;4.43;93.12
48089;BME280;33867;50.314;7.802;2022-12-07T09:34:42;100515.16;;;4.88;94.94
48089;BME280;33867;50.314;7.802;2022-12-07T09:38:01;100509.75;;;5.15;93.97
48089;BME280;33867;50.314;7.802;2022-12-07T09:41:21;100514.13;;;5.54;92.84
48089;BME280;33867;50.314;7.802;2022-12-07T10:17:39;100485.28;;;4.95;93.54
48089;BME280;33867;50.314;7.802;2022-12-07T10:21:17;100486.38;;;5.18;92.97
48089;BME280;33867;50.314;7.802;2022-12-07T10:28:17;100486.28;;;5.45;90.43
48089;BME280;33867;50.314;7.802;2022-12-07T10:31:39;100474.19;;;5.52;89.85
48089;BME280;33867;50.314;7.802;2022-12-07T10:42:19;100454.38;;;5.80;88.90
48089;BME280;33867;50.314;7.802;2022-12-07T10:49:51;100446.25;;;6.19;86.60
48089;BME280;33867;50.314;7.802;2022-12-07T10:56:55;100445.31;;;8.13;79.39
48089;BME280;33867;50.314;7.802;2022-12-07T11:00:19;100440.03;;;7.23;80.73
48089;BME280;33867;50.314;7.802;2022-12-07T11:11:27;100439.06;;;6.67;85.22
48089;BME280;33867;50.314;7.802;2022-12-07T11:50:35;100378.34;;;6.56;86.20
48089;BME280;33867;50.314;7.802;2022-12-07T12:24:54;100368.84;;;6.17;87.95
48089;BME280;33867;50.314;7.802;2022-12-07T12:28:39;100368.53;;;5.85;88.23
48089;BME280;33867;50.314;7.802;2022-12-07T12:32:13;100366.69;;;5.62;88.49
48089;BME280;33867;50.314;7.802;2022-12-07T12:35:37;100352.75;;;5.45;89.64
48089;BME280;33867;50.314;7.802;2022-12-07T12:43:39;100351.03;;;5.44;90.08
48089;BME280;33867;50.314;7.802;2022-12-07T12:53:36;100349.53;;;5.77;90.29
48089;BME280;33867;50.314;7.802;2022-12-07T13:00:25;100334.94;;;6.18;86.06
48089;BME280;33867;50.314;7.802;2022-12-07T13:03:54;100343.03;;;6.40;86.44
48089;BME280;33867;50.314;7.802;2022-12-07T13:11:29;100336.88;;;6.62;82.21
48089;BME280;33867;50.314;7.802;2022-12-07T13:14:56;100341.16;;;6.64;83.27
48089;BME280;33867;50.314;7.802;2022-12-07T13:18:25;100336.97;;;6.49;84.81
48089;BME280;33867;50.314;7.802;2022-12-07T13:21:53;100333.94;;;6.42;85.56
48089;BME280;33867;50.314;7.802;2022-12-07T13:25:22;100335.25;;;6.48;86.00
48089;BME280;33867;50.314;7.802;2022-12-07T13:29:21;100333.31;;;6.50;86.48
48089;BME280;33867;50.314;7.802;2022-12-07T13:32:40;100337.38;;;6.67;84.64
48089;BME280;33867;50.314;7.802;2022-12-07T13:35:59;100326.31;;;6.71;84.67
48089;BME280;33867;50.314;7.802;2022-12-07T13:39:21;100327.50;;;6.56;85.78
48089;BME280;33867;50.314;7.802;2022-12-07T13:42:41;100322.13;;;6.45;86.42
48089;BME280;33867;50.314;7.802;2022-12-07T13:46:01;100312.91;;;6.14;87.51
48089;BME280;33867;50.314;7.802;2022-12-07T13:49:23;100320.00;;;5.91;87.47
48089;BME280;33867;50.314;7.802;2022-12-07T13:52:44;100323.84;;;5.87;88.38
48089;BME280;33867;50.314;7.802;2022-12-07T13:56:04;100318.63;;;5.62;88.19
48089;BME280;33867;50.314;7.802;2022-12-07T13:59:24;100324.06;;;5.60;88.89
48089;BME280;33867;50.314;7.802;2022-12-07T14:14:20;100318.38;;;5.65;89.52
48089;BME280;33867;50.314;7.802;2022-12-07T14:18:29;100313.50;;;5.58;89.18
48089;BME280;33867;50.314;7.802;2022-12-07T14:22:06;100313.16;;;5.63;89.03
48089;BME280;33867;50.314;7.802;2022-12-07T14:30:54;100312.53;;;5.60;89.11
48089;BME280;33867;50.314;7.802;2022-12-07T14:42:15;100304.56;;;5.23;89.46
48089;BME280;33867;50.314;7.802;2022-12-07T14:49:22;100301.22;;;5.19;90.73
48089;BME280;33867;50.314;7.802;2022-12-07T14:52:43;100299.91;;;5.01;91.42
48089;BME280;33867;50.314;7.802;2022-12-07T15:07:31;100294.38;;;4.66;92.45
48089;BME280;33867;50.314;7.802;2022-12-07T15:10:50;100301.84;;;4.61;92.08
48089;BME280;33867;50.314;7.802;2022-12-07T15:17:48;100292.91;;;4.62;92.20
48089;BME280;33867;50.314;7.802;2022-12-07T15:21:13;100290.44;;;4.59;92.75
48089;BME280;33867;50.314;7.802;2022-12-07T15:28:03;100298.44;;;4.59;92.33
48089;BME280;33867;50.314;7.802;2022-12-07T15:31:21;100295.34;;;4.65;92.00
48089;BME280;33867;50.314;7.802;2022-12-07T15:34:41;100286.19;;;4.44;92.46
48089;BME280;33867;50.314;7.802;2022-12-07T15:38:02;100289.06;;;4.40;92.13
48089;BME280;33867;50.314;7.802;2022-12-07T15:41:22;100289.56;;;4.20;92.77
48089;BME280;33867;50.314;7.802;2022-12-07T15:44:41;100284.44;;;4.04;93.83
48089;BME280;33867;50.314;7.802;2022-12-07T15:48:19;100281.41;;;3.84;94.05
48089;BME280;33867;50.314;7.802;2022-12-07T15:51:39;100272.75;;;3.67;93.06
48089;BME280;33867;50.314;7.802;2022-12-07T15:54:58;100279.34;;;3.74;94.73
48089;BME280;33867;50.314;7.802;2022-12-07T15:58:24;100277.34;;;3.51;95.42
48089;BME280;33867;50.314;7.802;2022-12-07T16:01:43;100271.50;;;3.46;95.09
48089;BME280;33867;50.314;7.802;2022-12-07T16:05:03;100270.75;;;3.44;94.50
48089;BME280;33867;50.314;7.802;2022-12-07T16:08:22;100258.41;;;3.29;95.71
48089;BME280;33867;50.314;7.802;2022-12-07T16:11:41;100258.31;;;3.30;95.75
48089;BME280;33867;50.314;7.802;2022-12-07T16:15:00;100250.00;;;3.49;95.13
48089;BME280;33867;50.314;7.802;2022-12-07T16:18:19;100251.47;;;3.53;94.30
48089;BME280;33867;50.314;7.802;2022-12-07T16:21:39;100248.50;;;3.45;94.77
48089;BME280;33867;50.314;7.802;2022-12-07T16:24:58;100248.66;;;3.42;94.67
48089;BME280;33867;50.314;7.802;2022-12-07T16:28:17;100248.25;;;3.35;95.01
48089;BME280;33867;50.314;7.802;2022-12-07T16:31:36;100251.19;;;3.31;94.94
48089;BME280;33867;50.314;7.802;2022-12-07T16:34:55;100251.13;;;3.18;94.82
48089;BME280;33867;50.314;7.802;2022-12-07T16:38:15;100256.91;;;3.25;95.95
48089;BME280;33867;50.314;7.802;2022-12-07T16:41:34;100253.09;;;3.29;95.77
48089;BME280;33867;50.314;7.802;2022-12-07T16:44:53;100250.63;;;3.26;95.16
48089;BME280;33867;50.314;7.802;2022-12-07T16:48:12;100251.03;;;3.19;95.46
48089;BME280;33867;50.314;7.802;2022-12-07T16:51:31;100245.81;;;3.18;96.19
48089;BME280;33867;50.314;7.802;2022-12-07T16:54:53;100250.63;;;3.26;96.25
48089;BME280;33867;50.314;7.802;2022-12-07T16:58:13;100255.66;;;3.30;96.23
48089;BME280;33867;50.314;7.802;2022-12-07T17:01:32;100247.38;;;3.35;95.28
48089;BME280;33867;50.314;7.802;2022-12-07T17:04:53;100237.06;;;3.43;94.85
48089;BME280;33867;50.314;7.802;2022-12-07T17:08:12;100233.13;;;3.36;95.50
48089;BME280;33867;50.314;7.802;2022-12-07T17:11:32;100235.13;;;3.32;94.79
48089;BME280;33867;50.314;7.802;2022-12-07T17:14:51;100228.19;;;3.30;95.29
48089;BME280;33867;50.314;7.802;2022-12-07T17:18:31;100230.31;;;3.25;95.19
48089;BME280;33867;50.314;7.802;2022-12-07T17:21:50;100237.13;;;3.29;95.42
48089;BME280;33867;50.314;7.802;2022-12-07T17:25:09;100223.81;;;3.29;95.43
48089;BME280;33867;50.314;7.802;2022-12-07T17:28:28;100231.81;;;3.29;95.87
48089;BME280;33867;50.314;7.802;2022-12-07T17:31:48;100225.94;;;3.23;95.86
48089;BME280;33867;50.314;7.802;2022-12-07T17:35:07;100220.78;;;3.35;95.57
48089;BME280;33867;50.314;7.802;2022-12-07T17:38:28;100227.63;;;3.51;94.97
48089;BME280;33867;50.314;7.802;2022-12-07T17:41:47;100221.84;;;3.32;94.79
48089;BME280;33867;50.314;7.802;2022-12-07T18:00:26;100221.59;;;3.22;96.20
48089;BME280;33867;50.314;7.802;2022-12-07T18:03:45;100216.78;;;3.28;95.44
48089;BME280;33867;50.314;7.802;2022-12-07T18:48:03;100183.53;;;3.35;95.25
48089;BME280;33867;50.314;7.802;2022-12-07T18:51:23;100187.06;;;3.08;96.60
48089;BME280;33867;50.314;7.802;2022-12-07T18:54:42;100181.31;;;3.14;96.79
48089;BME280;33867;50.314;7.802;2022-12-07T18:58:01;100186.28;;;3.33;96.42
48089;BME280;33867;50.314;7.802;2022-12-07T19:01:19;100177.59;;;3.44;95.58
48089;BME280;33867;50.314;7.802;2022-12-07T20:02:50;100147.22;;;3.34;96.15
48089;BME280;33867;50.314;7.802;2022-12-07T20:17:09;100138.16;;;3.36;96.19
48089;BME280;33867;50.314;7.802;2022-12-07T20:20:28;100128.75;;;3.58;94.82
48089;BME280;33867;50.314;7.802;2022-12-07T20:56:36;100112.94;;;3.42;95.23
48089;BME280;33867;50.314;7.802;2022-12-07T20:59:55;100119.09;;;3.30;96.43
48089;BME280;33867;50.314;7.802;2022-12-07T21:03:14;100114.94;;;3.26;96.57
48089;BME280;33867;50.314;7.802;2022-12-07T21:06:35;100104.31;;;3.26;97.02
48089;BME280;33867;50.314;7.802;2022-12-07T21:09:55;100106.22;;;3.23;96.51
48089;BME280;33867;50.314;7.802;2022-12-07T21:13:14;100101.09;;;3.20;96.08
48089;BME280;33867;50.314;7.802;2022-12-07T22:13:15;100068.72;;;3.14;96.74
48089;BME280;33867;50.314;7.802;2022-12-07T22:16:36;100062.81;;;3.23;96.66
48089;BME280;33867;50.314;7.802;2022-12-07T22:19:55;100055.88;;;3.20;95.68
48089;BME280;33867;50.314;7.802;2022-12-07T22:23:14;100055.47;;;3.39;95.15
48089;BME280;33867;50.314;7.802;2022-12-07T22:26:33;100057.91;;;3.42;94.80
48089;BME280;33867;50.314;7.802;2022-12-07T22:29:52;100056.09;;;3.30;96.06
48089;BME280;33867;50.314;7.802;2022-12-07T22:33:11;100054.59;;;3.39;95.59
48089;BME280;33867;50.314;7.802;2022-12-07T22:36:30;100058.53;;;3.20;96.13
48089;BME280;33867;50.314;7.802;2022-12-07T22:39:50;100061.94;;;3.22;96.08
48089;BME280;33867;50.314;7.802;2022-12-07T22:43:09;100072.31;;;3.00;96.90
48089;BME280;33867;50.314;7.802;2022-12-07T22:46:28;100057.22;;;3.01;98.67
48089;BME280;33867;50.314;7.802;2022-12-07T22:49:47;100049.59;;;3.09;97.48
48089;BME280;33867;50.314;7.802;2022-12-07T22:53:06;100046.25;;;3.05;97.50
48089;BME280;33867;50.314;7.802;2022-12-07T22:56:27;100045.53;;;3.16;97.23
48089;BME280;33867;50.314;7.802;2022-12-07T22:59:47;100038.28;;;3.18;96.44
48089;BME280;33867;50.314;7.802;2022-12-07T23:03:06;100038.56;;;2.88;98.27
48089;BME280;33867;50.314;7.802;2022-12-07T23:06:32;100030.84;;;2.98;97.92
48089;BME280;33867;50.314;7.802;2022-12-07T23:09:51;100023.19;;;3.18;96.98
48089;BME280;33867;50.314;7.802;2022-12-07T23:13:12;100013.84;;;3.13;97.16
48089;BME280;33867;50.314;7.802;2022-12-07T23:16:46;100004.97;;;2.87;97.28
48089;BME280;33867;50.314;7.802;2022-12-07T23:20:06;100008.59;;;2.86;97.88
48089;BME280;33867;50.314;7.802;2022-12-07T23:23:25;100002.06;;;2.77;97.52
48089;BME280;33867;50.314;7.802;2022-12-07T23:26:45;100000.16;;;2.79;97.47
48089;BME280;33867;50.314;7.802;2022-12-07T23:30:05;100000.47;;;2.75;97.35
48089;BME280;33867;50.314;7.802;2022-12-07T23:33:24;100009.66;;;2.56;99.50
48089;BME280;33867;50.314;7.802;2022-12-07T23:36:43;100006.31;;;2.80;98.22
48089;BME280;33867;50.314;7.802;2022-12-07T23:40:02;100001.13;;;2.91;97.91
48089;BME280;33867;50.314;7.802;2022-12-07T23:43:21;100004.03;;;3.13;96.45
